Time;durP1;ratioP1;P1;durP2;ratioP2;P2;SDS_P1;SDS_P2;PMS_P1;PMS_P2;Temp;Humidity;BMP_temperature;BMP_pressure;BME280_temperature;BME280_humidity;BME280_pressure;Samples;Min_cycle;Max_cycle;Signal;HPM_P1;HPM_P2
2022/01/11 00:01:16;;;;;;;29.17;12.67;;;;;;;-1.98;75.35;101111.22;126315;1099;104149;-79
2022/01/11 00:03:49;;;;;;;31.40;13.57;;;;;;;-1.99;75.97;101110.33;126270;1099;104338;-79
2022/01/11 00:06:30;;;;;;;28.80;13.17;;;;;;;-1.97;76.25;101107.90;126287;1099;104139;-79
2022/01/11 00:09:18;;;;;;;27.37;12.17;;;;;;;-1.96;75.96;101117.44;126350;1099;104284;-78
2022/01/11 00:11:51;;;;;;;31.97;13.23;;;;;;;-1.95;76.85;101106.37;126260;1099;104220;-78
2022/01/11 00:14:22;;;;;;;29.17;14.20;;;;;;;-1.94;76.13;101115.91;126370;1099;102775;-79
2022/01/11 00:16:54;;;;;;;28.80;13.27;;;;;;;-1.90;76.95;101122.23;126303;1099;102817;-79
2022/01/11 00:19:28;;;;;;;28.53;12.10;;;;;;;-1.88;75.95;101134.50;126347;1099;104289;-79
2022/01/11 00:22:03;;;;;;;27.90;13.03;;;;;;;-1.91;75.50;101131.64;126306;1097;104345;-79
2022/01/11 00:24:34;;;;;;;;;;;;;;;-1.93;76.76;101128.02;126300;1099;104243;-79
2022/01/11 00:27:08;;;;;;;31.67;14.47;;;;;;;-1.96;76.76;101127.73;126357;1099;104140;-79
2022/01/11 00:29:44;;;;;;;31.62;14.93;;;;;;;-1.94;76.21;101128.77;126298;1099;104188;-78
2022/01/11 00:32:30;;;;;;;29.93;13.13;;;;;;;-1.91;76.88;101136.78;126249;1099;104146;-78
2022/01/11 00:35:03;;;;;;;31.23;12.73;;;;;;;-1.93;76.68;101146.03;125328;1099;104133;-78
2022/01/11 00:37:36;;;;;;;29.47;12.27;;;;;;;-1.96;76.67;101152.52;126306;1099;104168;-78
2022/01/11 00:40:11;;;;;;;20.43;8.10;;;;;;;-2.02;76.37;101182.05;126380;1099;104869;-79
2022/01/11 00:42:44;;;;;;;26.95;10.53;;;;;;;-2.11;76.32;101162.26;126287;1099;104174;-77
2022/01/11 00:45:16;;;;;;;23.33;10.50;;;;;;;-2.15;75.42;101167.85;126318;1099;104194;-76
2022/01/11 00:47:47;;;;;;;23.83;9.57;;;;;;;-2.19;75.78;101169.23;125405;1099;104338;-77
2022/01/11 00:50:22;;;;;;;28.87;11.80;;;;;;;-2.24;75.69;101155.03;126346;1098;104760;-79
2022/01/11 00:52:53;;;;;;;25.97;10.37;;;;;;;-2.27;75.67;101168.48;126262;1099;104245;-78
2022/01/11 00:55:24;;;;;;;25.93;10.90;;;;;;;-2.27;75.57;101167.59;126309;1099;104223;-79
2022/01/11 00:57:58;;;;;;;21.93;9.50;;;;;;;-2.27;75.57;101170.16;126331;1099;104204;-78
2022/01/11 01:00:30;;;;;;;22.37;9.50;;;;;;;-2.29;75.56;101203.44;126336;1099;104223;-78
2022/01/11 01:03:04;;;;;;;22.25;8.90;;;;;;;-2.34;76.39;101168.63;125288;1099;104249;-79
2022/01/11 01:05:36;;;;;;;;;;;;;;;-2.38;75.39;101171.68;126376;1099;104165;-78
2022/01/11 01:08:12;;;;;;;25.30;10.83;;;;;;;-2.38;76.48;101157.16;126311;1099;104142;-78
2022/01/11 01:10:47;;;;;;;27.37;9.93;;;;;;;-2.37;75.25;101181.19;126337;1099;104146;-78
2022/01/11 01:13:22;;;;;;;26.20;11.97;;;;;;;-2.37;76.77;101169.27;125405;1099;104296;-79
2022/01/11 01:16:00;;;;;;;24.33;10.20;;;;;;;-2.36;76.63;101170.16;126294;1099;104312;-79
2022/01/11 01:18:52;;;;;;;24.67;8.03;;;;;;;-2.38;76.80;101176.83;125220;1099;104160;-78
2022/01/11 01:21:24;;;;;;;25.47;10.37;;;;;;;-2.37;76.31;101173.47;125366;1099;104188;-79
2022/01/11 01:23:57;;;;;;;23.83;10.67;;;;;;;-2.33;76.43;101177.27;126368;1099;104159;-79
2022/01/11 01:26:29;;;;;;;26.20;11.83;;;;;;;-2.32;75.98;101177.42;126335;1099;104239;-79
2022/01/11 01:29:02;;;;;;;26.40;10.97;;;;;;;-2.30;76.74;101181.04;125379;1099;104304;-79
2022/01/11 01:31:34;;;;;;;23.77;10.60;;;;;;;-2.28;75.64;101174.38;126316;1099;104198;-78
2022/01/11 01:34:10;;;;;;;27.13;12.10;;;;;;;-2.29;75.50;101172.58;126324;1099;104146;-79
2022/01/11 01:36:41;;;;;;;26.93;11.47;;;;;;;-2.27;75.93;101168.48;125381;1099;104130;-79
2022/01/11 01:39:13;;;;;;;26.77;10.50;;;;;;;-2.27;76.78;101175.30;126303;1099;104249;-78
2022/01/11 01:41:49;;;;;;;27.23;10.47;;;;;;;-2.28;76.76;101174.38;126297;1099;104141;-79
2022/01/11 01:44:20;;;;;;;29.53;11.83;;;;;;;-2.27;76.06;101167.59;126394;1099;104280;-78
2022/01/11 01:46:52;;;;;;;28.47;11.77;;;;;;;-2.27;76.95;101181.34;126355;1099;104175;-79
2022/01/11 01:49:24;;;;;;;24.83;9.90;;;;;;;-2.28;76.27;101182.09;126320;1099;104197;-79
2022/01/11 01:51:58;;;;;;;28.40;11.40;;;;;;;-2.27;76.29;101186.48;126227;1099;104188;-79
2022/01/11 01:54:30;;;;;;;23.27;9.95;;;;;;;-2.31;77.47;101189.50;126225;1099;104268;-79
2022/01/11 01:57:03;;;;;;;23.87;8.93;;;;;;;-2.32;76.52;101187.70;126351;1099;104142;-78
2022/01/11 01:59:38;;;;;;;23.57;10.07;;;;;;;-2.31;77.63;101197.20;125383;1099;104197;-78
2022/01/11 02:02:12;;;;;;;25.47;10.47;;;;;;;-2.32;77.28;101192.84;125439;1099;104140;-78
2022/01/11 02:04:44;;;;;;;25.10;10.63;;;;;;;-2.31;77.38;101192.06;125349;1099;104160;-78
2022/01/11 02:07:16;;;;;;;25.83;10.30;;;;;;;-2.30;77.24;101185.28;125457;1099;104222;-79
2022/01/11 02:09:47;;;;;;;24.00;9.83;;;;;;;-2.31;76.10;101189.50;126333;1099;104245;-77
2022/01/11 02:12:21;;;;;;;23.83;9.20;;;;;;;-2.36;77.11;101191.62;126332;1099;104175;-79
2022/01/11 02:14:53;;;;;;;27.00;11.30;;;;;;;-2.35;76.67;101197.69;126271;1099;104169;-79
2022/01/11 02:17:28;;;;;;;26.30;10.50;;;;;;;-2.35;76.19;101183.16;125364;1099;104594;-78
2022/01/11 02:20:00;;;;;;;27.53;12.33;;;;;;;-2.33;77.60;101191.02;125391;1099;104140;-79
2022/01/11 02:22:32;;;;;;;23.47;10.77;;;;;;;-2.33;77.64;101195.27;125335;1099;104134;-78
2022/01/11 02:25:05;;;;;;;28.13;10.33;;;;;;;-2.37;77.08;101194.03;126278;1099;104175;-79
2022/01/11 02:27:37;;;;;;;26.87;11.17;;;;;;;-2.39;77.21;101200.70;126321;1099;104278;-79
2022/01/11 02:30:11;;;;;;;26.73;11.67;;;;;;;-2.39;76.12;101200.70;125412;1099;104228;-79
2022/01/11 02:32:53;;;;;;;19.27;7.97;;;;;;;-2.43;77.50;101219.14;125457;1099;104272;-79
2022/01/11 02:35:27;;;;;;;22.10;8.23;;;;;;;-2.46;77.42;101205.98;125378;1100;104294;-79
2022/01/11 02:37:59;;;;;;;25.17;9.83;;;;;;;-2.50;76.86;101202.21;125411;1098;104144;-79
2022/01/11 02:40:31;;;;;;;22.77;10.10;;;;;;;-2.53;77.20;101210.52;125385;1099;104156;-78
2022/01/11 02:43:02;;;;;;;25.73;11.17;;;;;;;-2.50;77.34;101212.49;126302;1099;104152;-79
2022/01/11 02:45:37;;;;;;;21.13;8.90;;;;;;;-2.51;77.50;101220.95;126252;1099;104229;-78
2022/01/11 02:48:09;;;;;;;21.43;7.63;;;;;;;-2.57;77.36;101226.41;126270;1099;104171;-78
2022/01/11 02:50:41;;;;;;;20.30;7.73;;;;;;;-2.63;77.01;101212.95;125356;1099;104150;-79
2022/01/11 02:53:13;;;;;;;22.53;8.57;;;;;;;-2.69;76.78;101214.02;126370;1099;104159;-79
2022/01/11 02:55:48;;;;;;;22.70;8.47;;;;;;;-2.72;76.25;101230.91;126265;1099;104307;-79
2022/01/11 02:58:20;;;;;;;21.33;7.73;;;;;;;-2.74;77.47;101218.69;125406;1099;104165;-79
2022/01/11 03:00:52;;;;;;;19.43;8.43;;;;;;;-2.75;77.36;101227.14;125392;1099;104706;-79
2022/01/11 03:03:25;;;;;;;20.07;7.27;;;;;;;-2.77;76.58;101233.80;125408;1099;104143;-79
2022/01/11 03:06:00;;;;;;;18.93;7.57;;;;;;;-2.78;76.45;101227.73;125367;1099;104169;-78
2022/01/11 03:08:36;;;;;;;23.23;8.57;;;;;;;-2.77;77.30;101238.94;126326;1099;104143;-78
2022/01/11 03:11:15;;;;;;;21.37;7.20;;;;;;;-2.80;76.79;101236.05;125474;1099;104854;-79
2022/01/11 03:13:47;;;;;;;19.50;7.45;;;;;;;-2.81;76.40;101241.94;125417;1099;104272;-78
2022/01/11 03:16:19;;;;;;;21.30;8.70;;;;;;;-2.81;76.55;101240.27;126253;1099;109791;-78
2022/01/11 03:18:50;;;;;;;19.97;7.77;;;;;;;-2.85;77.54;101242.37;125287;1102;104271;-78
2022/01/11 03:21:22;;;;;;;20.00;8.77;;;;;;;-2.85;77.12;101252.64;126358;1099;104140;-78
2022/01/11 03:23:54;;;;;;;21.33;8.57;;;;;;;-2.86;77.46;101250.84;126293;1099;104133;-78
2022/01/11 03:26:26;;;;;;;23.17;9.27;;;;;;;-2.87;77.31;101241.31;125264;1102;104155;-78
2022/01/11 03:28:58;;;;;;;22.70;8.45;;;;;;;-2.89;77.74;101242.06;125239;1102;104219;-79
2022/01/11 03:31:29;;;;;;;18.50;7.47;;;;;;;-2.94;77.12;101248.40;125200;1102;102352;-79
2022/01/11 03:34:00;;;;;;;14.87;6.10;;;;;;;-2.99;76.68;101246.11;125215;1102;104216;-79
2022/01/11 03:36:32;;;;;;;23.90;8.83;;;;;;;-2.96;77.52;101259.26;125160;1102;104211;-79
2022/01/11 03:39:03;;;;;;;25.10;10.27;;;;;;;-2.98;76.78;101256.53;125220;1102;104306;-79
2022/01/11 03:41:35;;;;;;;22.97;8.63;;;;;;;-2.96;77.67;101248.98;125270;1102;104181;-79
2022/01/11 03:44:08;;;;;;;21.30;8.00;;;;;;;-2.95;78.10;101264.55;125362;1100;104213;-79
2022/01/11 03:46:40;;;;;;;17.73;7.67;;;;;;;-2.98;77.95;101268.48;125209;1102;104149;-79
2022/01/11 03:49:11;;;;;;;22.50;8.43;;;;;;;-2.99;77.32;101275.28;125290;1102;104149;-77
2022/01/11 03:51:45;;;;;;;21.90;7.83;;;;;;;-3.00;77.43;101276.02;125261;1102;104249;-78
2022/01/11 03:54:22;;;;;;;;;;;;;;;-3.01;77.49;101271.63;125305;1102;104246;-78
2022/01/11 03:57:20;;;;;;;17.67;6.53;;;;;;;-3.05;76.85;101276.30;125296;1102;104390;-78
2022/01/11 03:59:54;;;;;;;17.07;7.37;;;;;;;-3.09;77.01;101273.41;125376;1102;102641;-78
2022/01/11 04:02:26;;;;;;;18.47;8.07;;;;;;;-3.11;77.71;101261.19;125264;1102;104344;-78
2022/01/11 04:04:58;;;;;;;19.67;7.93;;;;;;;-3.10;77.07;101270.69;125272;1102;104297;-78
2022/01/11 04:07:30;;;;;;;20.73;8.20;;;;;;;-3.10;77.69;101265.55;126251;1099;104143;-79
2022/01/11 04:10:02;;;;;;;18.17;7.73;;;;;;;-3.10;77.24;101275.83;126363;1099;104142;-78
2022/01/11 04:12:34;;;;;;;21.63;8.80;;;;;;;-3.09;77.51;101267.38;125386;1099;104245;-80
2022/01/11 04:15:08;;;;;;;21.87;8.67;;;;;;;-3.07;77.28;101271.94;125373;1099;104207;-79
2022/01/11 04:17:39;;;;;;;19.07;8.18;;;;;;;-3.02;78.01;101279.17;125381;1099;105354;-79
2022/01/11 04:20:14;;;;;;;20.70;8.87;;;;;;;-3.00;78.05;101283.73;126310;1099;104166;-79
2022/01/11 04:22:48;;;;;;;20.97;8.90;;;;;;;-3.01;78.13;101281.91;126236;1099;104166;-79
2022/01/11 04:25:20;;;;;;;18.70;6.97;;;;;;;-3.01;77.19;101287.04;126207;1099;104278;-79
2022/01/11 04:27:52;;;;;;;21.93;9.03;;;;;;;-3.03;77.71;101288.55;125308;1099;104146;-79
2022/01/11 04:30:23;;;;;;;24.23;10.43;;;;;;;-3.00;77.65;101299.14;126138;1099;104165;-79
2022/01/11 04:32:55;;;;;;;22.73;9.53;;;;;;;-3.00;76.54;101293.11;125255;1099;104210;-79
2022/01/11 04:35:26;;;;;;;19.13;8.50;;;;;;;-3.01;76.92;101293.84;126154;1099;104204;-79
2022/01/11 04:37:57;;;;;;;21.20;9.33;;;;;;;-3.00;76.39;101304.27;126301;1099;104239;-78
2022/01/11 04:40:29;;;;;;;21.97;9.20;;;;;;;-3.01;76.60;101309.25;125361;1099;104178;-79
2022/01/11 04:43:01;;;;;;;15.47;6.43;;;;;;;-3.05;76.36;101304.54;126355;1097;104238;-78
2022/01/11 04:45:32;;;;;;;20.57;9.47;;;;;;;-3.00;77.09;101313.65;125425;1099;104136;-78
2022/01/11 04:48:04;;;;;;;23.10;9.90;;;;;;;-2.99;77.46;101307.73;125372;1099;104172;-78
2022/01/11 04:50:36;;;;;;;23.20;9.93;;;;;;;-2.98;77.55;101307.00;125375;1099;104223;-78
2022/01/11 04:53:08;;;;;;;25.55;11.35;;;;;;;-2.96;77.00;101306.42;126330;1099;104220;-78
2022/01/11 04:55:40;;;;;;;26.47;11.07;;;;;;;-2.94;76.90;101320.31;125313;1102;104146;-78
2022/01/11 04:58:11;;;;;;;25.00;10.10;;;;;;;-2.94;77.18;101315.17;125377;1099;104230;-79
2022/01/11 05:00:43;;;;;;;28.70;10.73;;;;;;;-2.93;77.37;101331.48;125395;1099;104238;-78
2022/01/11 05:03:15;;;;;;;24.17;9.97;;;;;;;-2.92;77.50;101316.23;126353;1099;104185;-78
2022/01/11 05:05:49;;;;;;;25.97;10.53;;;;;;;-2.92;76.76;101331.64;125385;1099;105301;-78
2022/01/11 05:08:21;;;;;;;22.33;10.07;;;;;;;-2.90;76.77;101334.36;126270;1099;104181;-78
2022/01/11 05:10:53;;;;;;;24.83;10.23;;;;;;;-2.91;76.89;101336.03;126270;1099;104149;-78
2022/01/11 05:13:31;;;;;;;26.93;12.10;;;;;;;-2.89;77.98;101339.66;125295;1099;104168;-78
2022/01/11 05:16:03;;;;;;;28.27;12.50;;;;;;;-2.87;77.29;101333.78;125264;1099;104204;-78
2022/01/11 05:18:38;;;;;;;28.07;11.27;;;;;;;-2.86;77.62;101331.37;126047;1099;104143;-78
2022/01/11 05:21:09;;;;;;;26.90;9.97;;;;;;;-2.88;77.88;101358.57;125348;1099;104383;-78
2022/01/11 05:23:41;;;;;;;22.60;10.23;;;;;;;-2.89;77.33;101339.66;126128;1099;104305;-78
2022/01/11 05:26:12;;;;;;;25.17;10.97;;;;;;;-2.87;77.53;101356.90;125235;1099;104233;-78
2022/01/11 05:28:44;;;;;;;20.70;8.63;;;;;;;-2.91;77.53;101351.45;126125;1099;104264;-78
2022/01/11 05:31:15;;;;;;;26.10;10.77;;;;;;;-2.89;77.55;101359.31;125318;1099;104165;-77
2022/01/11 05:33:47;;;;;;;21.37;8.37;;;;;;;-2.95;76.26;101361.25;125369;1099;104245;-77
2022/01/11 05:36:19;;;;;;;23.50;8.57;;;;;;;-2.98;75.61;101378.91;126281;1099;104245;-77
2022/01/11 05:38:52;;;;;;;25.63;10.47;;;;;;;-2.99;76.16;101372.87;125397;1099;104143;-77
2022/01/11 05:41:24;;;;;;;24.07;9.93;;;;;;;-3.00;75.84;101373.61;125363;1099;104293;-77
2022/01/11 05:43:55;;;;;;;19.57;7.27;;;;;;;-3.04;75.17;101379.16;125150;1102;104146;-78
2022/01/11 05:46:31;;;;;;;21.50;8.93;;;;;;;-3.01;76.25;101389.76;125152;1102;104264;-77
2022/01/11 05:49:03;;;;;;;20.43;8.03;;;;;;;-3.02;75.10;101380.26;125164;1102;104146;-77
2022/01/11 05:51:35;;;;;;;26.03;10.90;;;;;;;-3.01;75.34;101393.99;125300;1102;104813;-78
2022/01/11 05:54:06;;;;;;;21.00;9.47;;;;;;;-3.01;75.69;101389.76;125304;1102;104211;-77
2022/01/11 05:56:37;;;;;;;23.80;9.90;;;;;;;-3.02;75.75;101394.73;125297;1102;104152;-78
2022/01/11 05:59:12;;;;;;;24.03;10.17;;;;;;;-3.02;75.84;101399.87;125151;1102;104143;-78
2022/01/11 06:01:45;;;;;;;18.60;8.10;;;;;;;-3.02;76.42;101429.05;125127;1102;104255;-78
2022/01/11 06:04:17;;;;;;;24.67;9.93;;;;;;;-3.03;76.17;101398.97;125135;1102;104165;-78
2022/01/11 06:06:48;;;;;;;26.63;10.70;;;;;;;-2.99;75.74;101407.89;125120;1102;104290;-79
2022/01/11 06:09:23;;;;;;;25.53;10.80;;;;;;;-2.99;76.43;101403.69;125174;1102;104364;-78
2022/01/11 06:11:55;;;;;;;24.53;9.33;;;;;;;-3.00;76.77;101414.70;125121;1102;104175;-78
2022/01/11 06:14:29;;;;;;;28.47;9.93;;;;;;;-2.96;77.02;101426.19;125180;1102;104332;-77
2022/01/11 06:17:02;;;;;;;32.88;12.68;;;;;;;-2.96;76.38;101409.14;125158;1099;104318;-78
2022/01/11 06:19:34;;;;;;;21.47;8.00;;;;;;;-2.94;76.56;101432.42;125144;1099;104243;-78
2022/01/11 06:22:10;;;;;;;24.03;9.27;;;;;;;-2.95;76.41;101410.05;125417;1100;104316;-78
2022/01/11 06:24:45;;;;;;;23.50;8.77;;;;;;;-2.97;75.68;101435.56;125985;1099;104267;-78
2022/01/11 06:27:22;;;;;;;14.45;5.25;;;;;;;-3.00;74.58;101436.91;125999;1099;104830;-80
2022/01/11 06:29:57;;;;;;;23.03;9.40;;;;;;;-2.95;74.75;101449.47;125941;1099;104217;-79
2022/01/11 06:32:30;;;;;;;19.20;8.17;;;;;;;-2.95;74.00;101441.76;125152;1102;104410;-78
2022/01/11 06:35:02;;;;;;;20.90;9.00;;;;;;;-2.94;74.91;101442.69;125191;1102;105149;-80
2022/01/11 06:37:36;;;;;;;22.00;7.80;;;;;;;-2.95;73.63;101435.72;125163;1102;104150;-80
2022/01/11 06:40:10;;;;;;;18.00;7.80;;;;;;;-2.94;73.74;101452.96;125179;1099;104296;-79
2022/01/11 06:42:41;;;;;;;16.37;6.53;;;;;;;-2.92;73.69;101444.64;125119;1099;103589;-78
2022/01/11 06:45:18;;;;;;;21.77;7.58;;;;;;;-2.92;72.33;101452.36;125237;1102;104223;-78
2022/01/11 06:47:53;;;;;;;16.17;6.13;;;;;;;-2.95;73.06;101435.72;125088;1103;104240;-79
2022/01/11 06:50:27;;;;;;;21.10;7.50;;;;;;;-2.94;73.24;101453.86;125020;1102;104210;-79
2022/01/11 06:53:01;;;;;;;16.40;7.30;;;;;;;-2.91;72.88;101449.05;125047;1102;104156;-81
2022/01/11 06:55:49;;;;;;;16.97;6.73;;;;;;;-2.90;72.40;101444.81;125137;1102;104239;-80
2022/01/11 06:58:22;;;;;;;16.23;6.40;;;;;;;-2.93;72.13;101450.55;125075;1103;104451;-80
2022/01/11 07:00:54;;;;;;;16.17;7.20;;;;;;;-2.94;73.44;101456.43;125010;1102;104608;-79
2022/01/11 07:03:26;;;;;;;17.03;7.10;;;;;;;-2.94;73.35;101443.59;125038;1102;104402;-80
2022/01/11 07:06:20;;;;;;;20.50;8.20;;;;;;;-2.88;73.66;101456.17;124993;1102;104690;-81
2022/01/11 07:08:52;;;;;;;22.07;9.73;;;;;;;-2.88;74.03;101448.47;125120;1102;104303;-80
2022/01/11 07:11:29;;;;;;;17.80;7.03;;;;;;;-2.86;73.95;101472.64;125139;1102;117908;-80
2022/01/11 07:14:04;;;;;;;17.77;7.37;;;;;;;-2.87;73.35;101455.41;125168;1101;104229;-80
2022/01/11 07:16:37;;;;;;;20.43;8.03;;;;;;;-2.86;74.30;101467.51;125186;1102;104341;-80
2022/01/11 07:19:10;;;;;;;21.07;9.60;;;;;;;-2.84;73.54;101470.23;125059;1102;104868;-81
2022/01/11 07:21:45;;;;;;;25.07;10.23;;;;;;;-2.83;73.63;101472.06;125114;1102;104370;-80
2022/01/11 07:24:23;;;;;;;20.10;8.97;;;;;;;-2.81;74.72;101479.16;125140;1099;104178;-81
2022/01/11 07:27:00;;;;;;;22.03;9.50;;;;;;;-2.78;74.31;101465.73;125187;1099;104335;-80
2022/01/11 07:29:34;;;;;;;18.52;8.15;;;;;;;-2.77;74.91;101470.14;125109;1102;104226;-78
2022/01/11 07:32:13;;;;;;;20.92;8.58;;;;;;;-2.78;73.96;101474.34;124981;1102;104178;-78
2022/01/11 07:34:48;;;;;;;21.47;8.47;;;;;;;-2.78;74.78;101483.72;125045;1102;104178;-80
2022/01/11 07:37:20;;;;;;;18.27;7.97;;;;;;;-2.77;74.76;101485.55;125025;1102;104188;-78
2022/01/11 07:39:56;;;;;;;22.30;9.00;;;;;;;-2.78;74.91;101502.60;125082;1099;104280;-78
2022/01/11 07:42:30;;;;;;;24.13;9.97;;;;;;;-2.75;74.53;101489.18;125704;1099;104172;-78
2022/01/11 07:45:13;;;;;;;16.97;6.90;;;;;;;-2.74;74.22;101497.05;125628;1099;104284;-79
2022/01/11 07:47:46;;;;;;;18.13;6.90;;;;;;;-2.76;74.43;101495.99;125579;1099;104201;-77
2022/01/11 07:50:19;;;;;;;21.33;8.90;;;;;;;-2.75;75.00;101494.31;124959;1099;104201;-79
2022/01/11 07:52:51;;;;;;;17.87;8.20;;;;;;;-2.76;74.20;101497.63;125008;1099;104217;-79
2022/01/11 07:55:24;;;;;;;16.75;6.85;;;;;;;-2.77;73.96;101489.02;125196;1102;104186;-78
2022/01/11 07:58:00;;;;;;;16.67;7.67;;;;;;;-2.78;74.29;101492.33;125088;1102;104415;-80
2022/01/11 08:00:38;;;;;;;19.27;6.67;;;;;;;-2.85;73.68;101470.98;125161;1102;104300;-79
2022/01/11 08:03:18;;;;;;;18.33;7.37;;;;;;;-2.73;73.92;101493.74;125050;1102;104326;-79
2022/01/11 08:06:01;;;;;;;18.55;8.10;;;;;;;-2.72;73.82;101502.34;124902;1102;104386;-78
2022/01/11 08:08:35;;;;;;;18.55;8.15;;;;;;;-2.69;73.94;101505.23;125087;1102;104207;-79
2022/01/11 08:11:14;;;;;;;15.53;6.40;;;;;;;-2.66;73.22;101508.13;124758;1105;104312;-78
2022/01/11 08:13:51;;;;;;;15.03;6.10;;;;;;;-2.67;72.79;101518.25;124941;1102;102364;-79
2022/01/11 08:16:30;;;;;;;18.07;7.97;;;;;;;-2.60;72.79;101511.34;125084;1102;104476;-78
2022/01/11 08:19:07;;;;;;;18.43;7.60;;;;;;;-2.58;73.29;101508.93;124928;1102;104415;-78
2022/01/11 08:21:41;;;;;;;16.20;6.60;;;;;;;-2.57;72.32;101515.86;125042;1102;104877;-79
2022/01/11 08:24:17;;;;;;;14.43;6.43;;;;;;;-2.57;71.98;101510.73;125073;1099;104217;-78
2022/01/11 08:26:53;;;;;;;16.83;6.50;;;;;;;-2.57;72.18;101503.95;125036;1099;104145;-78
2022/01/11 08:29:26;;;;;;;24.47;8.13;;;;;;;-2.56;72.41;101507.41;125175;1099;104235;-79
2022/01/11 08:32:06;;;;;;;18.40;7.93;;;;;;;-2.53;72.52;101513.77;125705;1099;104156;-79
2022/01/11 08:34:40;;;;;;;13.23;5.20;;;;;;;-2.57;72.55;101521.94;126032;1099;102291;-80
2022/01/11 08:37:25;;;;;;;18.83;7.43;;;;;;;-2.61;71.58;101522.36;126145;1099;104271;-79
2022/01/11 08:39:59;;;;;;;18.95;8.23;;;;;;;-2.64;73.00;101510.86;126071;1099;102995;-79
2022/01/11 08:42:35;;;;;;;18.33;8.00;;;;;;;-2.63;72.25;101513.59;126054;1098;104668;-78
2022/01/11 08:45:12;;;;;;;17.80;7.65;;;;;;;-2.63;73.42;101513.59;125955;1099;104203;-78
2022/01/11 08:47:46;;;;;;;16.93;7.87;;;;;;;-2.58;73.27;101516.64;125810;1098;104224;-77
2022/01/11 08:50:19;;;;;;;16.77;7.03;;;;;;;-2.51;72.67;101516.50;125724;1099;104418;-78
2022/01/11 08:53:04;;;;;;;17.53;7.60;;;;;;;-2.47;71.58;101507.47;125666;1099;104139;-79
2022/01/11 08:55:37;;;;;;;16.70;7.47;;;;;;;-2.38;73.02;101504.19;125809;1099;104169;-79
2022/01/11 08:58:35;;;;;;;19.50;7.60;;;;;;;-2.32;72.14;101500.41;125789;1099;104172;-78
2022/01/11 09:01:10;;;;;;;17.33;7.20;;;;;;;-2.28;71.25;101505.13;125945;1099;104189;-78
2022/01/11 09:03:44;;;;;;;17.10;8.57;;;;;;;-2.23;71.61;101499.72;125934;1099;104267;-78
2022/01/11 09:06:17;;;;;;;15.05;6.35;;;;;;;-2.23;69.54;101485.94;125836;1099;104220;-79
2022/01/11 09:08:51;;;;;;;12.68;4.97;;;;;;;-2.23;70.36;101489.44;125833;1099;104191;-78
2022/01/11 09:11:23;;;;;;;15.20;6.90;;;;;;;-2.18;70.18;101490.80;125784;1099;104219;-79
2022/01/11 09:13:59;;;;;;;11.97;5.13;;;;;;;-2.15;70.15;101491.86;125922;1099;104242;-78
2022/01/11 09:16:31;;;;;;;10.43;4.97;;;;;;;-2.21;69.63;101493.06;125820;1099;104216;-79
2022/01/11 09:19:04;;;;;;;12.93;6.13;;;;;;;-2.23;70.14;101492.01;125742;1099;102347;-79
2022/01/11 09:21:38;;;;;;;17.80;6.43;;;;;;;-2.26;69.98;101476.27;125479;1099;104147;-79
2022/01/11 09:24:19;;;;;;;16.42;5.92;;;;;;;-2.27;69.63;101487.29;125206;1099;108404;-80
2022/01/11 09:26:55;;;;;;;16.77;6.77;;;;;;;-2.28;70.79;101481.99;126005;1099;104140;-80
2022/01/11 09:29:28;;;;;;;16.10;6.70;;;;;;;-2.23;71.62;101485.94;125352;1099;104310;-80
2022/01/11 09:32:01;;;;;;;21.27;9.20;;;;;;;-2.24;70.70;101477.32;126095;1099;104315;-81
2022/01/11 09:34:40;;;;;;;18.57;7.87;;;;;;;-2.22;71.03;101480.05;125378;1099;104251;-81
2022/01/11 09:37:15;;;;;;;22.57;8.73;;;;;;;-2.24;71.47;101489.28;125585;1099;101864;-80
2022/01/11 09:39:48;;;;;;;14.10;5.78;;;;;;;-2.28;72.10;101498.31;126115;1099;104264;-80
2022/01/11 09:42:25;;;;;;;19.13;7.93;;;;;;;-2.33;72.38;101489.23;126057;1098;104152;-81
2022/01/11 09:45:00;;;;;;;17.70;7.63;;;;;;;-2.36;72.02;101492.39;125396;1099;104236;-80
2022/01/11 09:47:37;;;;;;;17.30;7.33;;;;;;;-2.34;72.22;101484.83;125332;1099;104210;-80
2022/01/11 09:50:14;;;;;;;17.37;7.40;;;;;;;-2.35;72.68;101496.79;126057;1099;104198;-78
2022/01/11 09:52:51;;;;;;;16.90;7.10;;;;;;;-2.33;71.93;101480.63;125996;1099;104140;-79
2022/01/11 09:55:36;;;;;;;15.63;6.80;;;;;;;-2.28;71.94;101476.84;126003;1099;104225;-80
2022/01/11 09:58:11;;;;;;;17.77;6.33;;;;;;;-2.25;69.89;101472.92;125903;1099;104142;-81
2022/01/11 10:00:57;;;;;;;16.50;7.40;;;;;;;-2.19;69.42;101488.98;125682;1099;104381;-79
2022/01/11 10:04:07;;;;;;;19.70;6.90;;;;;;;-2.13;69.70;101474.95;125772;1099;104249;-81
2022/01/11 10:06:59;;;;;;;18.10;6.83;;;;;;;-2.09;68.87;101474.48;126249;1099;104139;-80
2022/01/11 10:09:48;;;;;;;18.50;6.87;;;;;;;-2.07;69.28;101472.97;125883;1099;104290;-81
2022/01/11 10:12:23;;;;;;;15.50;6.13;;;;;;;-2.04;68.53;101468.13;125998;1099;102279;-78
2022/01/11 10:14:57;;;;;;;16.07;6.57;;;;;;;-2.06;68.28;101478.27;125259;1099;104198;-78
2022/01/11 10:17:46;;;;;;;17.82;6.78;;;;;;;-2.07;69.05;101458.47;125787;1099;104345;-80
2022/01/11 10:20:26;;;;;;;14.40;5.67;;;;;;;-2.00;66.64;101470.27;125951;1099;104144;-79
2022/01/11 10:23:35;;;;;;;17.65;6.33;;;;;;;-1.96;67.67;101467.27;125276;1099;102288;-80
2022/01/11 10:26:08;;;;;;;14.30;6.27;;;;;;;-1.90;68.25;101472.11;125786;1098;104335;-80
2022/01/11 10:28:44;;;;;;;12.80;5.53;;;;;;;-1.89;65.58;101473.94;125263;1099;104169;-80
2022/01/11 10:31:48;;;;;;;13.03;5.07;;;;;;;-1.96;64.66;101490.42;126008;1099;104190;-81
2022/01/11 10:34:29;;;;;;;10.80;4.27;;;;;;;-1.95;63.08;101474.20;125291;1099;104168;-80
2022/01/11 10:37:06;;;;;;;14.13;5.60;;;;;;;-1.89;65.70;101479.98;125834;1099;104134;-80
2022/01/11 10:39:45;;;;;;;16.37;5.67;;;;;;;-1.87;65.08;101473.34;125926;1099;104159;-79
2022/01/11 10:42:38;;;;;;;11.50;5.10;;;;;;;-1.86;64.05;101471.67;126104;1099;104320;-81
2022/01/11 10:45:14;;;;;;;19.70;6.73;;;;;;;-1.78;63.53;101478.48;126104;1099;105552;-81
2022/01/11 10:47:49;;;;;;;16.63;7.10;;;;;;;-1.71;64.70;101474.89;126215;1099;104188;-81
2022/01/11 10:50:28;;;;;;;15.85;6.65;;;;;;;-1.68;62.19;101470.05;126009;1099;104256;-80
2022/01/11 10:56:05;;;;;;;10.07;4.20;;;;;;;-1.74;62.65;101505.45;125941;1099;119737;-81
2022/01/11 10:59:08;;;;;;;14.63;5.53;;;;;;;-1.78;62.19;101483.63;126015;1099;104331;-80
2022/01/11 11:01:47;;;;;;;13.43;5.47;;;;;;;-1.76;62.93;101482.14;125952;1099;104268;-79
2022/01/11 11:04:38;;;;;;;16.20;6.03;;;;;;;-1.81;63.75;101481.69;125291;1099;104270;-80
2022/01/11 11:07:23;;;;;;;13.67;5.13;;;;;;;-1.85;63.17;101488.94;125730;1099;102337;-80
2022/01/11 11:10:28;;;;;;;15.97;5.50;;;;;;;-1.83;64.54;101479.70;125765;1099;104184;-80
2022/01/11 11:13:03;;;;;;;13.57;5.47;;;;;;;-1.87;64.11;101482.70;125680;1099;104207;-81
2022/01/11 11:15:40;;;;;;;16.03;6.60;;;;;;;-1.83;65.43;101485.73;125712;1099;104208;-81
2022/01/11 11:18:32;;;;;;;18.03;6.87;;;;;;;-1.78;65.45;101500.74;125056;1099;104248;-81
2022/01/11 11:21:21;;;;;;;18.50;7.30;;;;;;;-1.79;64.65;101493.77;125137;1099;104405;-80
2022/01/11 11:23:59;;;;;;;14.30;6.00;;;;;;;-1.83;65.20;101500.28;125129;1099;104268;-81
2022/01/11 11:26:36;;;;;;;15.40;6.47;;;;;;;-1.87;65.29;101514.51;124913;1099;107336;-79
2022/01/11 11:29:10;;;;;;;17.30;6.80;;;;;;;-1.90;66.09;101511.63;125030;1099;104322;-79
2022/01/11 11:31:41;;;;;;;;;;;;;;;-1.95;65.54;101514.47;125014;1099;104207;-80
2022/01/11 11:34:14;;;;;;;14.60;6.77;;;;;;;-1.97;66.27;101511.74;124971;1099;104241;-80
2022/01/11 11:36:52;;;;;;;21.70;8.13;;;;;;;-1.99;65.92;101508.12;125036;1099;117727;-80
2022/01/11 11:39:26;;;;;;;14.73;6.60;;;;;;;-2.04;67.15;101519.58;125055;1099;104383;-80